Time;durP1;ratioP1;P1;durP2;ratioP2;P2;SDS_P1;SDS_P2;PMS_P1;PMS_P2;Temp;Humidity;BMP_temperature;BMP_pressure;BME280_temperature;BME280_humidity;BME280_pressure;Samples;Min_cycle;Max_cycle;Signal;HPM_P1;HPM_P2
2020/12/13 00:03:03;;;;;;;43.43;33.50;;;;;;;6.83;69.15;96882.56;8406253;28;20200;-80
2020/12/13 00:07:05;;;;;;;41.77;32.57;;;;;;;6.90;69.04;96880.53;8383544;28;20220;-80
2020/12/13 00:11:06;;;;;;;43.40;32.33;;;;;;;6.89;69.19;96891.72;8384342;28;20204;-80
2020/12/13 00:15:08;;;;;;;43.87;33.67;;;;;;;6.95;68.84;96898.31;8384494;28;20210;-80
2020/12/13 00:19:11;;;;;;;46.30;33.73;;;;;;;6.91;68.94;96907.94;8385398;28;20307;-80
2020/12/13 00:23:15;;;;;;;48.90;34.63;;;;;;;6.95;68.88;96908.59;8386337;28;20203;-80
2020/12/13 00:27:17;;;;;;;49.63;36.47;;;;;;;6.90;69.07;96910.56;8383101;28;20199;-79
2020/12/13 00:31:19;;;;;;;58.07;38.13;;;;;;;6.95;68.98;96914.59;8367231;28;20254;-78
2020/12/13 00:35:22;;;;;;;69.93;40.03;;;;;;;6.99;69.05;96925.59;8379637;28;20207;-79
2020/12/13 00:39:24;;;;;;;68.30;39.87;;;;;;;6.95;69.07;96918.91;8384597;28;20570;-79
2020/12/13 00:43:26;;;;;;;53.93;38.13;;;;;;;6.93;69.11;96921.56;8381765;28;20636;-79
2020/12/13 00:47:28;;;;;;;51.30;36.13;;;;;;;6.97;69.26;96925.66;8380682;28;20204;-79
2020/12/13 00:51:30;;;;;;;50.33;36.57;;;;;;;6.99;69.14;96933.31;8373683;28;20232;-79
2020/12/13 00:55:32;;;;;;;51.67;37.03;;;;;;;6.93;69.19;96924.16;8366433;28;20208;-78
2020/12/13 00:59:34;;;;;;;51.77;36.93;;;;;;;7.00;69.13;96946.09;8366444;28;20250;-78
2020/12/13 01:03:36;;;;;;;57.83;39.03;;;;;;;7.01;69.10;96947.78;8365850;28;20639;-79
2020/12/13 01:07:38;;;;;;;61.50;38.77;;;;;;;6.98;68.94;96955.63;8369669;28;20203;-78
2020/12/13 01:11:40;;;;;;;60.40;38.40;;;;;;;6.99;69.05;96952.16;8372507;28;20218;-80
2020/12/13 01:15:41;;;;;;;56.67;39.07;;;;;;;7.01;69.05;96957.25;8382224;28;20204;-80
2020/12/13 01:19:47;;;;;;;59.00;38.30;;;;;;;6.98;69.27;96959.94;8368376;28;20580;-78
2020/12/13 01:23:50;;;;;;;58.43;40.17;;;;;;;6.97;69.31;96977.16;8365366;28;20192;-79
2020/12/13 01:27:51;;;;;;;53.33;35.60;;;;;;;6.99;69.38;96977.91;8366612;28;20229;-79
2020/12/13 01:31:53;;;;;;;54.00;36.37;;;;;;;6.96;69.29;96979.78;8367422;28;20207;-78
2020/12/13 01:35:55;;;;;;;56.57;37.83;;;;;;;6.99;69.15;96979.66;8366930;28;20231;-79
2020/12/13 01:39:57;;;;;;;58.83;38.87;;;;;;;6.91;69.19;96985.16;8366480;28;20262;-79
2020/12/13 01:44:01;;;;;;;51.17;36.00;;;;;;;6.93;69.40;96985.91;8368241;28;20204;-79
2020/12/13 01:48:03;;;;;;;46.97;33.63;;;;;;;7.02;68.89;96990.63;8377121;28;20204;-80
2020/12/13 01:56:24;;;;;;;52.17;34.93;;;;;;;7.09;69.07;97003.25;8368443;28;20211;-78
2020/12/13 02:00:27;;;;;;;59.90;39.70;;;;;;;7.10;69.00;97010.03;8365424;28;20219;-78
2020/12/13 02:04:33;;;;;;;58.80;39.00;;;;;;;7.08;69.11;97006.69;8352178;28;20597;-79
2020/12/13 02:08:39;;;;;;;51.87;35.37;;;;;;;7.14;68.86;97009.00;8335847;28;20195;-78
2020/12/13 02:12:42;;;;;;;64.20;40.67;;;;;;;7.03;69.22;97012.06;8338088;28;20633;-78
2020/12/13 02:16:44;;;;;;;54.53;37.03;;;;;;;7.12;68.86;97011.66;8337984;28;20196;-78
2020/12/13 02:20:47;;;;;;;64.00;40.53;;;;;;;7.04;69.21;97016.31;8337641;28;20224;-78
2020/12/13 02:24:49;;;;;;;52.47;36.27;;;;;;;7.10;69.05;97017.75;8337382;28;20204;-78
2020/12/13 02:28:51;;;;;;;62.30;39.00;;;;;;;6.94;69.61;97021.03;8337229;28;20213;-79
2020/12/13 02:32:53;;;;;;;55.43;36.47;;;;;;;7.06;68.83;97017.06;8337201;28;20212;-78
2020/12/13 02:36:54;;;;;;;64.03;40.47;;;;;;;7.05;69.06;97030.84;8341412;28;20236;-79
2020/12/13 02:40:57;;;;;;;51.13;34.23;;;;;;;7.14;69.11;97033.03;8342090;28;20672;-79
2020/12/13 02:44:59;;;;;;;58.53;40.13;;;;;;;7.03;69.04;97027.53;8344121;28;20220;-79
2020/12/13 02:49:00;;;;;;;57.80;37.27;;;;;;;7.03;69.25;97032.66;8347965;28;20211;-80
2020/12/13 02:53:02;;;;;;;58.27;38.60;;;;;;;6.98;69.74;97032.84;8351603;28;20236;-78
2020/12/13 02:57:05;;;;;;;54.37;38.07;;;;;;;7.03;69.45;97042.97;8337862;28;20616;-78
2020/12/13 03:01:08;;;;;;;52.03;36.90;;;;;;;7.08;69.00;97053.03;8336470;28;20224;-78
2020/12/13 03:05:09;;;;;;;46.93;34.50;;;;;;;7.17;68.83;97047.47;8357144;28;20246;-80
2020/12/13 03:09:11;;;;;;;48.07;35.13;;;;;;;7.16;68.57;97045.81;8392753;28;20203;-79
2020/12/13 03:13:14;;;;;;;49.10;36.53;;;;;;;7.14;69.21;97052.75;8377760;28;20636;-79
2020/12/13 03:17:15;;;;;;;52.50;38.37;;;;;;;7.12;68.97;97047.72;8378417;28;20200;-80
2020/12/13 03:21:18;;;;;;;58.07;40.43;;;;;;;7.13;68.93;97049.34;8378614;28;20226;-80
2020/12/13 03:25:19;;;;;;;57.00;40.20;;;;;;;7.17;69.06;97055.22;8378752;28;20208;-80
2020/12/13 03:29:22;;;;;;;57.13;39.80;;;;;;;6.94;69.66;97057.06;8378338;28;20563;-80
2020/12/13 03:33:24;;;;;;;53.97;36.47;;;;;;;7.08;69.18;97059.03;8374524;28;20199;-79
2020/12/13 03:37:26;;;;;;;52.63;37.80;;;;;;;7.08;69.18;97065.91;8374007;28;20203;-79
2020/12/13 03:41:28;;;;;;;53.67;37.57;;;;;;;7.12;68.67;97057.16;8370793;28;20223;-79
2020/12/13 03:45:30;;;;;;;52.07;38.23;;;;;;;7.02;69.48;97070.44;8377706;28;20200;-79
2020/12/13 03:49:32;;;;;;;48.27;35.30;;;;;;;7.04;69.35;97070.38;8370071;28;20231;-79
2020/12/13 03:53:34;;;;;;;48.83;35.80;;;;;;;7.11;69.11;97070.94;8379166;28;20556;-80
2020/12/13 03:57:36;;;;;;;44.53;32.47;;;;;;;7.18;69.07;97078.31;8386180;28;20192;-80
2020/12/13 04:01:38;;;;;;;44.40;33.60;;;;;;;7.13;69.34;97080.25;8387771;28;20220;-80
2020/12/13 04:05:40;;;;;;;42.83;32.37;;;;;;;7.13;69.08;97087.97;8387887;28;20559;-80
2020/12/13 04:09:42;;;;;;;39.07;31.57;;;;;;;7.16;69.04;97093.00;8374107;28;20557;-80
2020/12/13 04:13:43;;;;;;;40.50;31.17;;;;;;;7.22;68.90;97091.91;8374150;28;20192;-80
2020/12/13 04:17:46;;;;;;;39.83;31.30;;;;;;;7.20;69.10;97091.97;8373811;28;20207;-80
2020/12/13 04:21:48;;;;;;;38.57;31.00;;;;;;;7.20;69.11;97107.41;8374914;28;20224;-80
2020/12/13 04:25:50;;;;;;;38.03;30.77;;;;;;;7.24;68.94;97118.41;8362833;28;20192;-80
2020/12/13 04:29:52;;;;;;;32.83;28.03;;;;;;;7.34;68.75;97121.41;8374620;28;20208;-80
2020/12/13 04:33:54;;;;;;;36.63;27.60;;;;;;;7.20;69.02;97124.63;8375207;28;20204;-80
2020/12/13 04:37:56;;;;;;;33.03;28.50;;;;;;;7.30;68.85;97135.34;8376192;28;20210;-79
2020/12/13 04:41:58;;;;;;;34.07;28.80;;;;;;;7.26;68.79;97139.78;8374561;28;20220;-79
2020/12/13 04:46:00;;;;;;;34.17;27.00;;;;;;;7.30;68.63;97140.50;8376733;28;20203;-80
2020/12/13 04:50:05;;;;;;;29.80;25.10;;;;;;;7.30;68.91;97140.50;8376905;28;20267;-80
2020/12/13 04:54:07;;;;;;;34.80;26.90;;;;;;;7.19;68.85;97146.09;8376058;28;20612;-80
2020/12/13 04:58:10;;;;;;;29.83;26.50;;;;;;;7.28;69.22;97137.16;8376344;28;20208;-80
2020/12/13 05:02:13;;;;;;;30.03;25.80;;;;;;;7.32;69.14;97143.81;8375670;28;20232;-79
2020/12/13 05:06:16;;;;;;;30.10;26.27;;;;;;;7.35;68.76;97148.81;8377251;28;20223;-80
2020/12/13 05:10:19;;;;;;;30.50;25.20;;;;;;;7.36;68.68;97150.50;8378833;28;20233;-79
2020/12/13 05:14:20;;;;;;;29.40;25.10;;;;;;;7.36;68.94;97163.38;8379387;28;20210;-80
2020/12/13 05:18:23;;;;;;;29.13;25.30;;;;;;;7.38;68.70;97169.31;8380361;28;20207;-80
2020/12/13 05:22:26;;;;;;;29.53;25.53;;;;;;;7.34;69.17;97173.75;8381218;28;20254;-80
2020/12/13 05:26:27;;;;;;;37.20;28.37;;;;;;;7.39;69.04;97174.41;8382615;28;20207;-81
2020/12/13 05:30:33;;;;;;;32.23;25.30;;;;;;;7.39;69.01;97174.41;8383513;28;20238;-81
2020/12/13 05:34:37;;;;;;;33.03;27.87;;;;;;;7.24;69.15;97186.19;8378571;28;20188;-80
2020/12/13 05:38:40;;;;;;;31.17;26.67;;;;;;;7.37;69.03;97189.09;8374713;28;20222;-80
2020/12/13 05:42:45;;;;;;;33.87;28.90;;;;;;;7.43;68.86;97187.97;8377649;28;20670;-81
2020/12/13 05:46:59;;;;;;;33.93;28.13;;;;;;;7.32;68.95;97190.19;8385786;28;20651;-80
2020/12/13 05:51:12;;;;;;;29.27;24.53;;;;;;;7.38;69.10;97183.00;8385710;28;20281;-80
2020/12/13 05:55:14;;;;;;;35.17;25.77;;;;;;;7.48;68.75;97185.19;8387117;28;20188;-80
2020/12/13 05:59:16;;;;;;;43.67;27.93;;;;;;;7.35;69.68;97185.75;8388226;28;20547;-79
2020/12/13 06:03:30;;;;;;;42.63;26.30;;;;;;;7.21;69.99;97180.34;8388159;28;20227;-80
2020/12/13 06:07:35;;;;;;;55.87;30.70;;;;;;;6.98;71.36;97187.31;8388135;28;20192;-80
2020/12/13 06:11:43;;;;;;;43.10;29.17;;;;;;;7.13;70.30;97195.31;8388585;28;20557;-81
2020/12/13 06:15:46;;;;;;;42.37;28.97;;;;;;;7.23;70.24;97196.56;8389950;28;20188;-81
2020/12/13 06:19:48;;;;;;;46.67;30.87;;;;;;;7.28;70.11;97204.09;8392803;28;20204;-81
2020/12/13 06:23:50;;;;;;;52.20;31.90;;;;;;;7.23;70.36;97215.44;8387012;28;20203;-80
2020/12/13 06:27:52;;;;;;;43.00;30.60;;;;;;;7.28;70.01;97217.00;8385089;28;20675;-81
2020/12/13 06:31:56;;;;;;;41.60;29.17;;;;;;;7.39;70.05;97227.66;8385553;28;20206;-80
2020/12/13 06:35:59;;;;;;;44.37;30.30;;;;;;;7.39;69.78;97232.81;8385774;28;20253;-80
2020/12/13 06:40:04;;;;;;;50.13;34.90;;;;;;;7.41;70.00;97231.00;8387572;28;20224;-80
2020/12/13 06:44:11;;;;;;;51.23;34.77;;;;;;;7.39;69.97;97243.13;8386488;28;20644;-81
2020/12/13 06:48:13;;;;;;;52.13;34.13;;;;;;;7.39;70.12;97243.94;8384725;28;20226;-81
2020/12/13 06:52:17;;;;;;;50.27;33.23;;;;;;;7.41;70.01;97249.03;8383311;28;20236;-81
2020/12/13 06:56:19;;;;;;;50.97;33.87;;;;;;;7.47;69.50;97248.78;8382423;28;20200;-80
2020/12/13 07:00:22;;;;;;;54.50;34.13;;;;;;;7.40;69.88;97258.50;8382705;28;20235;-80
2020/12/13 07:04:31;;;;;;;50.17;31.93;;;;;;;7.39;70.09;97266.31;8371202;28;20592;-80
2020/12/13 07:08:33;;;;;;;44.77;30.73;;;;;;;7.45;69.91;97268.63;8351931;28;20577;-80
2020/12/13 07:12:36;;;;;;;58.67;33.97;;;;;;;7.41;69.90;97272.22;8352644;28;20223;-80
2020/12/13 07:16:42;;;;;;;47.60;31.73;;;;;;;7.39;70.10;97274.03;8352191;28;20213;-79
2020/12/13 07:20:45;;;;;;;47.67;31.93;;;;;;;7.47;69.97;97274.53;8345722;28;20376;-79
2020/12/13 07:24:46;;;;;;;47.83;31.03;;;;;;;7.47;69.59;97279.69;8379895;28;20533;-80
2020/12/13 07:28:49;;;;;;;47.67;30.97;;;;;;;7.41;69.87;97285.94;8387625;28;20207;-80
2020/12/13 07:32:51;;;;;;;48.07;32.17;;;;;;;7.43;69.85;97283.31;8386190;28;20199;-80
2020/12/13 07:36:53;;;;;;;43.20;30.97;;;;;;;7.49;69.68;97290.75;8382669;28;20207;-79
2020/12/13 07:40:56;;;;;;;42.47;30.00;;;;;;;7.48;70.01;97293.41;8381349;28;20240;-80
2020/12/13 07:44:59;;;;;;;45.27;30.10;;;;;;;7.48;69.86;97295.97;8382809;28;20196;-80
2020/12/13 07:49:07;;;;;;;48.03;31.67;;;;;;;7.49;70.02;97300.25;8381364;28;20215;-81
2020/12/13 07:53:09;;;;;;;48.73;31.43;;;;;;;7.39;69.94;97286.91;8381999;28;20231;-80
2020/12/13 07:57:15;;;;;;;51.77;32.33;;;;;;;7.60;69.72;97316.09;8382154;28;20205;-80
2020/12/13 08:01:18;;;;;;;52.47;32.23;;;;;;;7.64;69.73;97325.34;8382126;28;20223;-80
2020/12/13 08:05:25;;;;;;;49.27;30.90;;;;;;;7.53;70.31;97314.66;8381787;28;20219;-80
2020/12/13 08:09:27;;;;;;;48.90;29.60;;;;;;;7.49;70.00;97319.09;8380901;28;20199;-80
2020/12/13 08:13:29;;;;;;;52.00;31.60;;;;;;;7.63;69.84;97334.84;8378420;28;20208;-80
2020/12/13 08:17:31;;;;;;;42.53;28.23;;;;;;;7.50;70.52;97317.34;8379986;28;20203;-80
2020/12/13 08:21:43;;;;;;;43.60;28.80;;;;;;;7.69;70.16;97338.03;8378095;28;20231;-79
2020/12/13 08:25:45;;;;;;;41.73;27.37;;;;;;;7.66;70.30;97346.75;8367880;28;20605;-79
2020/12/13 08:29:47;;;;;;;39.23;25.37;;;;;;;7.77;70.11;97356.59;8374413;28;20196;-79
2020/12/13 08:34:04;;;;;;;47.53;31.50;;;;;;;7.67;70.37;97350.16;8383499;28;20216;-80
2020/12/13 08:38:07;;;;;;;37.73;26.73;;;;;;;7.76;70.37;97365.22;8383016;28;20188;-80
2020/12/13 08:42:09;;;;;;;41.93;27.77;;;;;;;7.74;70.12;97356.72;8382138;28;20224;-80
2020/12/13 08:46:31;;;;;;;43.33;27.87;;;;;;;7.72;70.25;97369.66;8384626;28;20196;-80
2020/12/13 08:50:39;;;;;;;40.17;25.20;;;;;;;7.78;70.55;97378.88;8380060;28;20266;-79
2020/12/13 08:54:49;;;;;;;35.30;24.53;;;;;;;7.83;70.35;97389.84;8381311;28;20330;-79
2020/12/13 08:58:52;;;;;;;36.87;26.30;;;;;;;7.76;70.96;97391.81;8375556;28;20207;-80
2020/12/13 09:02:55;;;;;;;39.77;27.47;;;;;;;7.81;70.55;97399.38;8380743;28;20232;-79
2020/12/13 09:06:59;;;;;;;35.07;25.07;;;;;;;7.80;70.86;97408.00;8405480;28;20223;-79
2020/12/13 09:11:04;;;;;;;31.83;23.93;;;;;;;7.87;70.58;97409.44;8404834;28;20237;-79
2020/12/13 09:15:10;;;;;;;33.10;23.57;;;;;;;8.01;70.38;97419.16;8403307;28;20187;-79
2020/12/13 09:19:13;;;;;;;30.07;23.70;;;;;;;8.03;70.39;97405.31;8413751;28;20195;-80
2020/12/13 09:23:21;;;;;;;25.67;20.27;;;;;;;8.07;70.22;97423.22;8413861;28;20219;-79
2020/12/13 09:27:23;;;;;;;35.20;27.17;;;;;;;7.96;71.03;97427.09;8411133;28;20203;-79
2020/12/13 09:31:25;;;;;;;36.30;27.47;;;;;;;7.99;70.88;97428.69;8409586;28;20209;-79
2020/12/13 09:35:29;;;;;;;31.83;25.43;;;;;;;8.03;71.01;97427.66;8408091;28;20195;-79
2020/12/13 09:39:31;;;;;;;28.87;23.90;;;;;;;8.03;71.13;97423.34;8419697;28;20332;-79
2020/12/13 09:43:34;;;;;;;31.90;25.73;;;;;;;8.11;71.11;97420.44;8418828;28;20227;-80
2020/12/13 09:47:36;;;;;;;30.03;24.70;;;;;;;8.16;71.40;97418.50;8414225;28;20195;-80
2020/12/13 09:51:38;;;;;;;29.20;24.40;;;;;;;8.19;70.95;97423.53;8416267;28;20234;-79
2020/12/13 09:55:40;;;;;;;26.87;23.57;;;;;;;8.26;71.15;97434.41;8414761;28;20202;-80
2020/12/13 09:59:42;;;;;;;31.43;25.07;;;;;;;8.35;70.68;97426.25;8415605;28;20195;-79
2020/12/13 10:03:47;;;;;;;52.37;40.30;;;;;;;8.38;70.88;97423.56;8408255;28;20246;-79
2020/12/13 10:12:08;;;;;;;39.53;34.50;;;;;;;8.40;71.13;97426.91;8380276;28;20196;-80
2020/12/13 10:16:14;;;;;;;28.77;24.10;;;;;;;8.36;71.43;97427.94;8378212;28;20377;-79
2020/12/13 10:20:15;;;;;;;27.90;22.57;;;;;;;8.43;71.07;97427.72;8369242;28;20253;-79
2020/12/13 10:24:17;;;;;;;30.73;21.57;;;;;;;8.35;71.76;97428.00;8369639;28;20204;-79
2020/12/13 10:28:19;;;;;;;25.67;20.93;;;;;;;8.44;71.60;97429.41;8372278;28;20311;-79
2020/12/13 10:32:23;;;;;;;24.00;19.87;;;;;;;8.47;71.40;97434.41;8379258;28;20215;-79
2020/12/13 10:36:27;;;;;;;21.83;19.03;;;;;;;8.59;71.52;97433.88;8374840;28;20188;-78
2020/12/13 10:40:29;;;;;;;21.60;18.50;;;;;;;8.69;71.12;97429.13;8371201;28;20686;-78
2020/12/13 10:44:30;;;;;;;23.43;18.67;;;;;;;8.75;71.23;97427.09;8371292;28;20203;-78
2020/12/13 10:48:34;;;;;;;23.90;18.63;;;;;;;8.90;71.19;97425.56;8373584;28;20200;-78
2020/12/13 10:52:35;;;;;;;24.40;19.37;;;;;;;8.86;70.73;97415.44;8371441;28;20223;-79
2020/12/13 10:56:37;;;;;;;23.67;19.10;;;;;;;8.88;70.97;97422.22;8371356;28;20203;-80
2020/12/13 11:00:39;;;;;;;22.13;18.13;;;;;;;8.95;71.02;97425.38;8369676;28;20224;-79
2020/12/13 11:04:41;;;;;;;22.80;18.17;;;;;;;9.04;71.16;97437.00;8368020;28;20238;-79
2020/12/13 11:08:43;;;;;;;22.27;17.60;;;;;;;8.97;71.66;97432.13;8368341;28;20235;-79
2020/12/13 11:12:44;;;;;;;24.77;19.17;;;;;;;9.01;71.54;97430.22;8370008;28;20215;-79
2020/12/13 11:16:47;;;;;;;23.83;19.43;;;;;;;9.05;71.44;97436.09;8369996;28;20211;-79
2020/12/13 11:20:50;;;;;;;23.67;18.10;;;;;;;9.12;71.21;97437.47;8369896;28;20255;-79
2020/12/13 11:24:51;;;;;;;23.50;19.60;;;;;;;9.10;71.34;97439.28;8370531;28;20203;-79
2020/12/13 11:28:53;;;;;;;23.73;19.10;;;;;;;9.12;71.42;97446.06;8373245;28;20551;-79
2020/12/13 11:32:55;;;;;;;21.60;17.50;;;;;;;9.14;71.28;97436.50;8371391;28;20204;-79
2020/12/13 11:36:58;;;;;;;21.73;18.27;;;;;;;9.18;71.41;97435.44;8372539;28;20294;-79
2020/12/13 11:41:00;;;;;;;21.07;17.73;;;;;;;9.20;71.37;97435.38;8369796;28;20605;-79
2020/12/13 11:45:03;;;;;;;28.17;21.97;;;;;;;9.24;71.45;97442.06;8370370;28;20639;-79
2020/12/13 11:49:05;;;;;;;32.30;25.97;;;;;;;9.24;71.96;97447.22;8370322;28;20639;-79
2020/12/13 11:53:08;;;;;;;25.10;21.70;;;;;;;9.30;71.81;97446.09;8370989;28;20235;-79
2020/12/13 11:57:11;;;;;;;26.47;22.10;;;;;;;9.30;71.97;97441.78;8368405;28;20200;-79
2020/12/13 12:01:12;;;;;;;28.70;24.27;;;;;;;9.28;72.29;97451.34;8368344;28;20231;-77
2020/12/13 12:05:15;;;;;;;24.47;19.47;;;;;;;9.34;72.30;97452.81;8367625;28;20227;-79
2020/12/13 12:09:18;;;;;;;22.70;18.23;;;;;;;9.35;72.42;97454.50;8367482;28;20690;-78
2020/12/13 12:13:20;;;;;;;23.53;18.07;;;;;;;9.31;72.56;97447.75;8367444;28;20215;-78
2020/12/13 12:17:22;;;;;;;24.70;19.30;;;;;;;9.30;72.85;97449.53;8367355;28;20554;-78
2020/12/13 12:21:25;;;;;;;24.77;18.27;;;;;;;9.37;72.58;97457.84;8367167;28;20756;-78
2020/12/13 12:25:29;;;;;;;41.23;26.70;;;;;;;9.39;72.77;97454.25;8367282;28;20200;-78
2020/12/13 12:29:30;;;;;;;36.67;26.07;;;;;;;9.42;72.59;97449.84;8366932;28;20219;-78
2020/12/13 12:33:32;;;;;;;28.27;22.53;;;;;;;9.39;72.83;97456.00;8366909;28;20564;-78
2020/12/13 12:37:37;;;;;;;32.10;25.67;;;;;;;9.39;73.20;97458.59;8366803;28;20661;-78
2020/12/13 12:41:39;;;;;;;31.77;24.50;;;;;;;9.43;72.86;97465.28;8366164;28;20224;-78
2020/12/13 12:45:41;;;;;;;20.20;17.67;;;;;;;9.38;73.17;97465.50;8366079;28;20210;-77
2020/12/13 12:49:43;;;;;;;21.27;16.83;;;;;;;9.41;73.07;97467.13;8366722;28;20566;-77
2020/12/13 12:53:45;;;;;;;19.53;17.43;;;;;;;9.36;73.33;97467.31;8366767;28;20187;-77
2020/12/13 12:57:49;;;;;;;17.67;14.80;;;;;;;9.40;73.25;97470.59;8367851;28;20655;-78
2020/12/13 13:01:52;;;;;;;14.03;12.53;;;;;;;9.37;73.34;97474.16;8366204;28;20231;-78
2020/12/13 13:06:01;;;;;;;11.20;9.73;;;;;;;9.31;73.31;97473.59;8341689;28;20624;-78
2020/12/13 13:10:07;;;;;;;11.57;9.73;;;;;;;9.37;73.10;97474.16;8333485;28;20199;-78
2020/12/13 13:14:11;;;;;;;10.40;9.30;;;;;;;9.32;73.08;97473.53;8333218;28;20188;-78
2020/12/13 13:18:14;;;;;;;9.40;8.50;;;;;;;9.30;73.17;97474.53;8333534;28;20220;-78
2020/12/13 13:22:16;;;;;;;10.87;9.77;;;;;;;9.27;72.95;97482.41;8333492;28;20224;-78
2020/12/13 13:26:21;;;;;;;12.07;10.23;;;;;;;9.27;72.77;97477.25;8333706;28;20204;-78
2020/12/13 13:30:24;;;;;;;12.50;9.37;;;;;;;9.32;72.38;97481.28;8333826;28;20557;-79
2020/12/13 13:34:27;;;;;;;10.90;9.40;;;;;;;9.26;72.86;97491.09;8333081;28;20208;-78
2020/12/13 13:38:28;;;;;;;11.23;10.10;;;;;;;9.22;73.10;97489.56;8332345;28;20236;-78
2020/12/13 13:42:32;;;;;;;9.93;8.87;;;;;;;9.18;72.68;97496.63;8332269;28;20236;-78
2020/12/13 13:46:49;;;;;;;10.37;9.27;;;;;;;9.22;72.57;97500.72;8332446;28;20204;-78
2020/12/13 13:50:51;;;;;;;10.90;9.83;;;;;;;9.19;72.48;97508.63;8332735;28;20228;-78
2020/12/13 13:55:04;;;;;;;11.60;10.40;;;;;;;9.25;72.47;97507.50;8332622;28;20192;-79
2020/12/13 13:59:06;;;;;;;11.23;10.13;;;;;;;9.23;72.50;97519.66;8332839;28;20200;-78
2020/12/13 14:03:09;;;;;;;11.40;8.03;;;;;;;9.34;72.11;97517.41;8337365;28;20220;-78
2020/12/13 14:11:35;;;;;;;9.27;8.27;;;;;;;9.28;71.89;97539.19;8404824;28;20672;-78
2020/12/13 14:15:37;;;;;;;11.40;10.20;;;;;;;9.32;72.06;97534.72;8404290;28;20203;-78
2020/12/13 14:19:40;;;;;;;13.13;11.23;;;;;;;9.25;72.18;97529.00;8404340;28;20549;-78
2020/12/13 14:23:42;;;;;;;9.03;8.13;;;;;;;9.29;72.08;97540.03;8403953;28;20222;-78
2020/12/13 14:27:43;;;;;;;7.93;7.20;;;;;;;9.27;72.39;97552.19;8403747;28;20203;-78
2020/12/13 14:31:45;;;;;;;7.60;6.87;;;;;;;9.29;72.13;97558.13;8404114;28;20210;-78
2020/12/13 14:35:48;;;;;;;8.80;7.63;;;;;;;9.27;72.20;97563.38;8403494;28;20206;-78
2020/12/13 14:39:49;;;;;;;12.83;9.63;;;;;;;9.17;72.67;97567.25;8403502;28;20568;-78
2020/12/13 14:43:51;;;;;;;10.60;9.50;;;;;;;9.30;72.05;97567.56;8403254;28;20558;-78
2020/12/13 14:47:53;;;;;;;12.37;10.73;;;;;;;9.31;71.94;97569.22;8403390;28;20555;-78
2020/12/13 14:51:55;;;;;;;16.90;12.50;;;;;;;9.29;72.15;97571.03;8403511;28;20717;-78
2020/12/13 14:55:57;;;;;;;11.47;10.27;;;;;;;9.32;71.97;97579.50;8403036;28;20239;-78
2020/12/13 14:59:59;;;;;;;16.50;13.57;;;;;;;9.36;72.04;97582.78;8402239;28;20199;-78
2020/12/13 15:04:01;;;;;;;12.83;11.63;;;;;;;9.33;71.99;97591.53;8392990;28;20235;-78
2020/12/13 15:08:04;;;;;;;11.37;9.33;;;;;;;9.32;72.17;97599.34;8369232;28;20222;-78
2020/12/13 15:12:06;;;;;;;8.80;7.90;;;;;;;9.28;71.83;97596.03;8368825;28;20206;-78
2020/12/13 15:16:16;;;;;;;6.90;6.20;;;;;;;9.30;71.91;97606.31;8368355;28;20215;-79
2020/12/13 15:20:18;;;;;;;6.23;5.63;;;;;;;9.23;72.01;97604.91;8369678;28;20553;-78
2020/12/13 15:24:20;;;;;;;6.50;5.90;;;;;;;9.24;71.96;97601.44;8368679;28;20228;-78
2020/12/13 15:28:23;;;;;;;7.43;6.20;;;;;;;9.17;71.63;97613.78;8368904;28;20200;-78
2020/12/13 15:32:25;;;;;;;7.27;6.57;;;;;;;9.09;71.71;97613.28;8368925;28;20207;-79
2020/12/13 15:36:27;;;;;;;6.87;6.00;;;;;;;9.16;71.73;97615.53;8368223;28;20282;-78
2020/12/13 15:40:30;;;;;;;7.07;6.47;;;;;;;9.09;71.71;97613.28;8368612;28;20200;-78
2020/12/13 15:44:31;;;;;;;9.93;6.57;;;;;;;9.04;71.85;97612.63;8368376;28;20230;-79
2020/12/13 15:48:33;;;;;;;8.43;7.30;;;;;;;9.12;71.60;97619.16;8368112;28;20199;-78
2020/12/13 15:52:38;;;;;;;8.33;7.10;;;;;;;8.97;71.87;97619.81;8368574;28;20757;-79
2020/12/13 15:56:41;;;;;;;9.03;7.30;;;;;;;9.00;71.71;97622.25;8368264;28;20662;-78
2020/12/13 16:00:42;;;;;;;9.37;7.83;;;;;;;9.01;71.21;97626.53;8368221;28;20226;-78
2020/12/13 16:04:47;;;;;;;8.83;8.03;;;;;;;9.04;71.26;97622.97;8382452;28;20230;-78
2020/12/13 16:08:50;;;;;;;9.47;8.57;;;;;;;8.95;71.53;97635.38;8400654;28;20681;-79
2020/12/13 16:13:00;;;;;;;10.23;9.23;;;;;;;9.00;71.25;97635.16;8400785;28;20302;-78
2020/12/13 16:17:02;;;;;;;11.33;10.23;;;;;;;9.05;70.76;97633.22;8400299;28;20199;-78
2020/12/13 16:21:05;;;;;;;11.57;10.50;;;;;;;9.04;70.79;97639.28;8399752;28;20282;-78
2020/12/13 16:25:09;;;;;;;14.67;13.27;;;;;;;9.06;70.93;97634.91;8400291;28;20564;-79
2020/12/13 16:29:12;;;;;;;13.23;11.93;;;;;;;9.08;70.39;97638.28;8400002;28;20210;-78
2020/12/13 16:33:17;;;;;;;14.73;13.43;;;;;;;9.10;70.41;97639.06;8399714;28;20214;-78
2020/12/13 16:37:20;;;;;;;17.97;16.17;;;;;;;9.10;70.65;97639.06;8399415;28;20271;-78
2020/12/13 16:41:26;;;;;;;20.87;16.73;;;;;;;9.11;70.76;97653.63;8399225;28;20269;-78
2020/12/13 16:45:33;;;;;;;16.53;14.90;;;;;;;9.12;70.49;97650.16;8399666;28;20254;-79
2020/12/13 16:49:53;;;;;;;16.40;14.83;;;;;;;9.09;70.59;97647.69;8399524;28;20654;-78
2020/12/13 16:58:23;;;;;;;27.00;23.60;;;;;;;9.04;70.73;97653.97;8363344;28;20202;-78
2020/12/13 17:02:29;;;;;;;18.47;16.67;;;;;;;9.11;70.61;97655.38;8399590;28;20229;-79
2020/12/13 17:06:32;;;;;;;17.07;15.47;;;;;;;9.06;70.45;97655.56;8369179;28;20231;-79
2020/12/13 17:10:34;;;;;;;17.80;16.00;;;;;;;9.11;70.67;97650.22;8348918;28;20644;-79
2020/12/13 17:14:37;;;;;;;14.80;13.40;;;;;;;9.11;70.34;97650.22;8366413;28;20243;-78
2020/12/13 17:18:41;;;;;;;13.90;12.50;;;;;;;9.12;70.38;97646.72;8365703;28;20210;-79
2020/12/13 17:22:42;;;;;;;16.47;13.60;;;;;;;9.09;70.33;97645.09;8365678;28;20226;-79
2020/12/13 17:26:44;;;;;;;15.53;12.53;;;;;;;9.07;70.45;97652.09;8364970;28;20204;-78
2020/12/13 17:30:46;;;;;;;13.97;12.67;;;;;;;9.10;70.46;97649.38;8364922;28;20203;-79
2020/12/13 17:34:49;;;;;;;14.87;13.27;;;;;;;9.09;70.02;97644.28;8365889;28;20204;-78
2020/12/13 17:38:51;;;;;;;16.50;14.90;;;;;;;9.07;70.39;97649.50;8367769;28;20208;-78
2020/12/13 17:42:55;;;;;;;16.60;15.10;;;;;;;9.04;70.04;97647.03;8371103;28;20231;-78
2020/12/13 17:47:05;;;;;;;8.60;7.57;;;;;;;10.91;82.09;97649.59;8369402;28;20255;-78
2020/12/13 17:51:12;;;;;;;14.80;9.87;;;;;;;11.87;72.02;97648.81;8380350;28;20290;-80
2020/12/13 17:55:19;;;;;;;14.57;11.00;;;;;;;12.22;63.86;97645.22;8388443;28;20569;-80
2020/12/13 17:59:24;;;;;;;17.00;15.37;;;;;;;10.80;64.06;97646.69;8373831;28;20206;-78
2020/12/13 18:03:28;;;;;;;17.80;16.20;;;;;;;10.36;65.93;97642.78;8372107;28;20212;-78
2020/12/13 18:07:31;;;;;;;22.67;20.37;;;;;;;10.03;66.49;97646.03;8371456;28;20199;-77
2020/12/13 18:11:33;;;;;;;22.03;19.60;;;;;;;9.87;66.90;97655.44;8370738;28;20206;-78
2020/12/13 18:15:35;;;;;;;21.30;19.20;;;;;;;9.62;67.72;97656.56;8371689;28;20627;-78
2020/12/13 18:19:37;;;;;;;21.10;18.90;;;;;;;9.52;67.74;97666.47;8370552;28;20242;-78
2020/12/13 18:23:40;;;;;;;20.20;18.10;;;;;;;9.49;68.11;97676.13;8373425;28;20583;-79
2020/12/13 18:27:42;;;;;;;23.40;21.07;;;;;;;9.42;68.10;97672.13;8373007;28;20204;-79
2020/12/13 18:31:44;;;;;;;22.10;19.80;;;;;;;9.40;68.11;97682.53;8371222;28;20219;-79
2020/12/13 18:35:47;;;;;;;22.13;19.83;;;;;;;9.31;68.49;97683.78;8342090;28;20721;-79
2020/12/13 18:39:50;;;;;;;23.47;20.97;;;;;;;9.19;68.73;97676.53;8339384;28;20225;-78
2020/12/13 18:43:52;;;;;;;21.23;17.73;;;;;;;9.16;69.07;97679.28;8337924;28;20591;-79
2020/12/13 18:47:53;;;;;;;19.20;16.93;;;;;;;9.07;68.81;97685.66;8339125;28;20544;-79
2020/12/13 18:51:56;;;;;;;18.97;16.97;;;;;;;9.09;68.62;97689.03;8336729;28;20271;-78
2020/12/13 18:55:58;;;;;;;20.47;16.07;;;;;;;9.07;68.39;97690.84;8337848;28;20207;-78
2020/12/13 19:00:01;;;;;;;25.17;22.53;;;;;;;9.00;68.76;97689.41;8348895;28;20230;-79
2020/12/13 19:04:15;;;;;;;23.03;20.57;;;;;;;9.02;68.57;97692.75;8369008;28;20231;-78
2020/12/13 19:08:19;;;;;;;21.17;19.07;;;;;;;8.93;68.69;97701.75;8369592;28;20531;-78
2020/12/13 19:12:22;;;;;;;21.33;19.13;;;;;;;8.94;68.66;97695.66;8368026;28;20204;-78